Time;durP1;ratioP1;P1;durP2;ratioP2;P2;SDS_P1;SDS_P2;PMS_P1;PMS_P2;Temp;Humidity;BMP_temperature;BMP_pressure;BME280_temperature;BME280_humidity;BME280_pressure;Samples;Min_cycle;Max_cycle;Signal;HPM_P1;HPM_P2
2023/02/10 00:01:02;;;;;;;;;;;0.00;99.90;;;;;;5073333;28;20246;-54
2023/02/10 00:03:28;;;;;;;;;;;0.10;99.90;;;;;;5073835;28;19920;-55
2023/02/10 00:05:55;;;;;;;;;;;0.20;99.90;;;;;;5074663;28;19920;-53
2023/02/10 00:08:22;;;;;;;;;;;0.10;99.90;;;;;;5072867;28;19920;-52
2023/02/10 00:10:49;;;;;;;;;;;0.00;99.90;;;;;;5075433;28;19920;-51
2023/02/10 00:13:16;;;;;;;;;;;-0.10;99.90;;;;;;5075517;28;19920;-53
2023/02/10 00:15:43;;;;;;;;;;;-0.10;99.90;;;;;;5076018;28;19939;-54
2023/02/10 00:18:11;;;;;;;;;;;-0.20;99.90;;;;;;5075870;28;19928;-55
2023/02/10 00:20:38;;;;;;;;;;;-0.20;99.90;;;;;;5076233;28;19921;-54
2023/02/10 00:23:07;;;;;;;;;;;-0.10;99.90;;;;;;5075857;28;20329;-53
2023/02/10 00:25:34;;;;;;;;;;;-0.10;99.90;;;;;;5076114;28;19928;-54
2023/02/10 00:28:00;;;;;;;;;;;-0.10;99.90;;;;;;5076405;28;20232;-52
2023/02/10 00:30:27;;;;;;;;;;;0.00;99.90;;;;;;5075111;28;20224;-51
2023/02/10 00:32:54;;;;;;;;;;;0.00;99.90;;;;;;5076610;28;19925;-54
2023/02/10 00:35:22;;;;;;;;;;;-0.10;99.90;;;;;;5075761;28;19983;-53
2023/02/10 00:37:49;;;;;;;;;;;-0.10;99.90;;;;;;5076133;28;19928;-54
2023/02/10 00:40:16;;;;;;;;;;;-0.10;99.90;;;;;;5074429;28;19920;-55
2023/02/10 00:42:43;;;;;;;;;;;-0.20;99.90;;;;;;5073669;28;20279;-54
2023/02/10 00:45:10;;;;;;;;;;;-0.20;99.90;;;;;;5073430;28;19931;-54
2023/02/10 00:47:37;;;;;;;;;;;-0.20;99.90;;;;;;5072634;28;20386;-53
2023/02/10 00:50:04;;;;;;;;;;;-0.10;99.90;;;;;;5072290;28;19927;-49
2023/02/10 00:52:32;;;;;;;;;;;0.00;99.90;;;;;;5073381;28;20320;-54
2023/02/10 00:54:59;;;;;;;;;;;0.00;99.90;;;;;;5073315;28;19921;-55
2023/02/10 00:57:26;;;;;;;;;;;0.00;99.90;;;;;;5074428;28;19924;-54
2023/02/10 00:59:53;;;;;;;;;;;-0.10;99.90;;;;;;5073202;28;20015;-55
2023/02/10 01:02:19;;;;;;;;;;;-0.10;99.90;;;;;;5074621;28;19927;-54
2023/02/10 01:04:46;;;;;;;;;;;-0.10;99.90;;;;;;5074688;28;19920;-51
2023/02/10 01:07:13;;;;;;;;;;;-0.10;99.90;;;;;;5075989;28;20225;-54
2023/02/10 01:09:42;;;;;;;;;;;-0.10;99.90;;;;;;5075348;28;19920;-54
2023/02/10 01:12:09;;;;;;;;;;;-0.20;99.90;;;;;;5078951;28;19950;-53
2023/02/10 01:14:36;;;;;;;;;;;-0.20;99.90;;;;;;5078988;28;20196;-54
2023/02/10 01:17:02;;;;;;;;;;;-0.20;99.90;;;;;;5079070;28;19932;-55
2023/02/10 01:19:29;;;;;;;;;;;-0.10;99.90;;;;;;5080349;28;19932;-50
2023/02/10 01:21:56;;;;;;;;;;;-0.20;99.90;;;;;;5077856;28;19920;-55
2023/02/10 01:24:23;;;;;;;;;;;-0.40;99.90;;;;;;5078531;28;20057;-55
2023/02/10 01:26:51;;;;;;;;;;;-0.40;99.90;;;;;;5078892;28;19928;-54
2023/02/10 01:29:18;;;;;;;;;;;-0.50;99.90;;;;;;5078963;28;20336;-50
2023/02/10 01:31:45;;;;;;;;;;;-0.60;99.90;;;;;;5079432;28;20127;-54
2023/02/10 01:34:11;;;;;;;;;;;-0.50;99.90;;;;;;5079142;28;19921;-54
2023/02/10 01:36:38;;;;;;;;;;;-0.40;99.90;;;;;;5077435;28;20437;-55
2023/02/10 01:39:05;;;;;;;;;;;-0.30;99.90;;;;;;5077757;28;19924;-53
2023/02/10 01:41:32;;;;;;;;;;;-0.30;99.90;;;;;;5077823;28;19920;-53
2023/02/10 01:44:04;;;;;;;;;;;-0.30;99.90;;;;;;5076009;28;19925;-52
2023/02/10 01:46:32;;;;;;;;;;;-0.30;99.90;;;;;;5076799;28;20247;-53
2023/02/10 01:49:00;;;;;;;;;;;-0.30;99.90;;;;;;5078117;28;19924;-53
2023/02/10 01:51:31;;;;;;;;;;;-0.40;99.90;;;;;;5079453;28;19921;-54
2023/02/10 01:53:58;;;;;;;;;;;-0.50;99.90;;;;;;5078865;28;19927;-52
2023/02/10 01:56:25;;;;;;;;;;;-0.50;99.90;;;;;;5078634;28;19928;-55
2023/02/10 01:58:52;;;;;;;;;;;-0.60;99.90;;;;;;5078639;28;19930;-55
2023/02/10 02:01:20;;;;;;;;;;;-0.60;99.90;;;;;;5079090;28;19927;-53
2023/02/10 02:03:47;;;;;;;;;;;-0.60;99.90;;;;;;5078220;28;19920;-52
2023/02/10 02:06:14;;;;;;;;;;;-0.50;99.90;;;;;;5078790;28;19927;-54
2023/02/10 02:08:41;;;;;;;;;;;-0.50;99.90;;;;;;5077783;28;19924;-54
2023/02/10 02:11:13;;;;;;;;;;;-0.50;99.90;;;;;;5077707;28;19927;-54
2023/02/10 02:13:48;;;;;;;;;;;-0.50;99.90;;;;;;5078562;28;20278;-49
2023/02/10 02:16:23;;;;;;;;;;;-0.40;99.90;;;;;;5078422;28;19943;-54
2023/02/10 02:18:55;;;;;;;;;;;-0.30;99.90;;;;;;5078593;28;19990;-54
2023/02/10 02:21:49;;;;;;;;;;;-0.30;99.90;;;;;;5077970;28;20224;-56
2023/02/10 02:24:31;;;;;;;;;;;-0.40;99.90;;;;;;5077584;28;19920;-53
2023/02/10 02:27:16;;;;;;;;;;;-0.40;99.90;;;;;;5077512;28;19920;-55
2023/02/10 02:30:03;;;;;;;;;;;-0.50;99.90;;;;;;5076753;28;19927;-54
2023/02/10 02:32:33;;;;;;;;;;;-0.60;99.90;;;;;;5077460;28;19924;-54
2023/02/10 02:35:03;;;;;;;;;;;-0.60;99.90;;;;;;5076951;28;19920;-54
2023/02/10 02:37:31;;;;;;;;;;;-0.60;99.90;;;;;;5077180;28;19924;-52
2023/02/10 02:39:58;;;;;;;;;;;-0.50;99.90;;;;;;5077190;28;20236;-52
2023/02/10 02:42:26;;;;;;;;;;;-0.50;99.90;;;;;;5076140;28;19921;-52
2023/02/10 02:44:55;;;;;;;;;;;-0.60;99.90;;;;;;5077401;28;19920;-52
2023/02/10 02:47:36;;;;;;;;;;;-0.60;99.90;;;;;;5075443;28;19920;-55
2023/02/10 02:50:14;;;;;;;;;;;-0.60;99.90;;;;;;5077821;28;19920;-50
2023/02/10 02:52:47;;;;;;;;;;;-0.60;99.90;;;;;;5077293;28;20298;-50
2023/02/10 02:55:18;;;;;;;;;;;-0.70;99.90;;;;;;5077513;28;19927;-55
2023/02/10 02:57:47;;;;;;;;;;;-0.70;99.90;;;;;;5077725;28;19921;-53
2023/02/10 03:00:16;;;;;;;;;;;-0.70;99.90;;;;;;5076236;28;20421;-49
2023/02/10 03:02:45;;;;;;;;;;;-0.80;99.90;;;;;;5077565;28;19920;-54
2023/02/10 03:05:12;;;;;;;;;;;-0.90;99.90;;;;;;5077379;28;19989;-60
2023/02/10 03:07:39;;;;;;;;;;;-0.90;99.90;;;;;;5076334;28;19927;-55
2023/02/10 03:10:06;;;;;;;;;;;-0.90;99.90;;;;;;5077784;28;19927;-58
2023/02/10 03:12:33;;;;;;;;;;;-0.80;99.90;;;;;;5077859;28;19921;-55
2023/02/10 03:15:00;;;;;;;;;;;-0.80;99.90;;;;;;5076600;28;19924;-55
2023/02/10 03:17:26;;;;;;;;;;;-0.80;99.90;;;;;;5074159;28;19986;-54
2023/02/10 03:19:55;;;;;;;;;;;-0.50;99.90;;;;;;5076282;28;20308;-54
2023/02/10 03:22:21;;;;;;;;;;;-0.50;99.90;;;;;;5076230;28;20292;-53
2023/02/10 03:24:48;;;;;;;;;;;-0.40;99.90;;;;;;5076304;28;19927;-55
2023/02/10 03:27:15;;;;;;;;;;;-0.50;99.90;;;;;;5075466;28;20363;-53
2023/02/10 03:29:42;;;;;;;;;;;-0.60;99.90;;;;;;5076764;28;19924;-54
2023/02/10 03:32:09;;;;;;;;;;;-0.60;99.90;;;;;;5075758;28;19921;-55
2023/02/10 03:34:36;;;;;;;;;;;-0.60;99.90;;;;;;5074658;28;19927;-54
2023/02/10 03:37:04;;;;;;;;;;;-0.60;99.90;;;;;;5076942;28;20310;-55
2023/02/10 03:39:31;;;;;;;;;;;-0.70;99.90;;;;;;5076441;28;19920;-56
2023/02/10 03:41:58;;;;;;;;;;;-0.70;99.90;;;;;;5076911;28;20248;-56
2023/02/10 03:44:24;;;;;;;;;;;-0.60;99.90;;;;;;5076417;28;20354;-49
2023/02/10 03:46:51;;;;;;;;;;;-0.70;99.90;;;;;;5076947;28;19928;-53
2023/02/10 03:49:18;;;;;;;;;;;-0.70;99.90;;;;;;5076045;28;19924;-49
2023/02/10 03:51:45;;;;;;;;;;;-0.60;99.90;;;;;;5076645;28;19924;-52
2023/02/10 03:54:13;;;;;;;;;;;-0.50;99.90;;;;;;5075672;28;19924;-50
2023/02/10 03:56:40;;;;;;;;;;;-0.40;99.90;;;;;;5076876;28;19928;-52
2023/02/10 03:59:07;;;;;;;;;;;-0.50;99.90;;;;;;5076858;28;20224;-55
2023/02/10 04:01:33;;;;;;;;;;;-0.50;99.90;;;;;;5076873;28;20334;-54
2023/02/10 04:04:00;;;;;;;;;;;-0.60;99.90;;;;;;5076276;28;20379;-55
2023/02/10 04:06:27;;;;;;;;;;;-0.60;99.90;;;;;;5076472;28;19920;-55
2023/02/10 04:08:54;;;;;;;;;;;-0.60;99.90;;;;;;5075443;28;19931;-55
2023/02/10 04:11:22;;;;;;;;;;;-0.60;99.90;;;;;;5075440;28;19927;-56
2023/02/10 04:13:49;;;;;;;;;;;-0.60;99.90;;;;;;5075577;28;19928;-53
2023/02/10 04:16:19;;;;;;;;;;;-0.70;99.90;;;;;;5075482;28;19928;-53
2023/02/10 04:18:46;;;;;;;;;;;-0.70;99.90;;;;;;5075547;28;19920;-54
2023/02/10 04:21:13;;;;;;;;;;;-0.60;99.90;;;;;;5074772;28;19928;-54
2023/02/10 04:23:40;;;;;;;;;;;-0.70;99.90;;;;;;5074994;28;19924;-56
2023/02/10 04:26:06;;;;;;;;;;;-0.70;99.90;;;;;;5075539;28;20331;-52
2023/02/10 04:28:35;;;;;;;;;;;-0.60;99.90;;;;;;5076213;28;19920;-53
2023/02/10 04:31:02;;;;;;;;;;;-0.70;99.90;;;;;;5075962;28;19935;-56
2023/02/10 04:33:29;;;;;;;;;;;-0.70;99.90;;;;;;5076077;28;19931;-51
2023/02/10 04:35:57;;;;;;;;;;;-0.60;99.90;;;;;;5075967;28;19931;-53
2023/02/10 04:38:24;;;;;;;;;;;-0.70;99.90;;;;;;5075357;28;19970;-53
2023/02/10 04:40:51;;;;;;;;;;;-0.80;99.90;;;;;;5076412;28;19924;-52
2023/02/10 04:43:18;;;;;;;;;;;-0.80;99.90;;;;;;5075616;28;19927;-55
2023/02/10 04:45:46;;;;;;;;;;;-0.70;99.90;;;;;;5077036;28;19931;-53
2023/02/10 04:48:14;;;;;;;;;;;-0.80;99.90;;;;;;5080102;28;20375;-56
2023/02/10 04:50:41;;;;;;;;;;;-0.70;99.90;;;;;;5079942;28;19971;-54
2023/02/10 04:53:08;;;;;;;;;;;-0.60;99.90;;;;;;5080261;28;19924;-55
2023/02/10 04:55:35;;;;;;;;;;;-0.60;99.90;;;;;;5078753;28;19928;-55
2023/02/10 04:58:02;;;;;;;;;;;-0.60;99.90;;;;;;5078700;28;20213;-55
2023/02/10 05:00:28;;;;;;;;;;;-0.60;99.90;;;;;;5078679;28;19924;-50
2023/02/10 05:02:57;;;;;;;;;;;-0.70;99.90;;;;;;5078851;28;19920;-55
2023/02/10 05:05:25;;;;;;;;;;;-0.70;99.90;;;;;;5078966;28;19924;-53
2023/02/10 05:07:52;;;;;;;;;;;-0.70;99.90;;;;;;5077457;28;19925;-55
2023/02/10 05:10:18;;;;;;;;;;;-0.60;99.90;;;;;;5077660;28;20215;-54
2023/02/10 05:12:45;;;;;;;;;;;-0.70;99.90;;;;;;5076498;28;19931;-52
2023/02/10 05:15:13;;;;;;;;;;;-0.80;99.90;;;;;;5076987;28;19928;-55
2023/02/10 05:17:40;;;;;;;;;;;-0.90;99.90;;;;;;5077215;28;19964;-55
2023/02/10 05:20:09;;;;;;;;;;;-1.00;99.90;;;;;;5078570;28;19920;-53
2023/02/10 05:22:36;;;;;;;;;;;-1.10;99.90;;;;;;5078750;28;20320;-50
2023/02/10 05:25:02;;;;;;;;;;;-1.10;99.90;;;;;;5078303;28;19957;-55
2023/02/10 05:27:29;;;;;;;;;;;-1.10;99.90;;;;;;5078322;28;20278;-52
2023/02/10 05:29:56;;;;;;;;;;;-1.10;99.90;;;;;;5077932;28;19928;-55
2023/02/10 05:32:23;;;;;;;;;;;-1.00;99.90;;;;;;5078195;28;19927;-54
2023/02/10 05:34:50;;;;;;;;;;;-1.00;99.90;;;;;;5077689;28;19924;-52
2023/02/10 05:37:18;;;;;;;;;;;-1.00;99.90;;;;;;5077529;28;19927;-56
2023/02/10 05:39:45;;;;;;;;;;;-1.00;99.90;;;;;;5077455;28;20193;-57
2023/02/10 05:42:11;;;;;;;;;;;-0.90;99.90;;;;;;5077723;28;19939;-56
2023/02/10 05:44:38;;;;;;;;;;;-0.90;99.90;;;;;;5076527;28;19929;-56
2023/02/10 05:47:05;;;;;;;;;;;-0.90;99.90;;;;;;5077239;28;19920;-56
2023/02/10 05:49:32;;;;;;;;;;;-0.80;99.90;;;;;;5076424;28;19921;-56
2023/02/10 05:51:59;;;;;;;;;;;-0.80;99.90;;;;;;5077687;28;19921;-53
2023/02/10 05:54:27;;;;;;;;;;;-0.80;99.90;;;;;;5017629;28;1220798;-53
2023/02/10 05:56:54;;;;;;;;;;;-0.80;99.90;;;;;;5058344;28;19974;-56
2023/02/10 05:59:21;;;;;;;;;;;-0.80;99.90;;;;;;5058644;28;20228;-53
2023/02/10 06:01:47;;;;;;;;;;;-0.90;99.90;;;;;;5057364;28;19920;-54
2023/02/10 06:04:14;;;;;;;;;;;-1.00;99.90;;;;;;5057869;28;19925;-54
2023/02/10 06:06:41;;;;;;;;;;;-1.10;99.90;;;;;;5056647;28;19928;-56
2023/02/10 06:09:08;;;;;;;;;;;-1.00;99.90;;;;;;5057768;28;19943;-54
2023/02/10 06:11:36;;;;;;;;;;;-0.90;99.90;;;;;;5057088;28;19944;-56
2023/02/10 06:14:03;;;;;;;;;;;-0.90;99.90;;;;;;5056400;28;19921;-55
2023/02/10 06:16:30;;;;;;;;;;;-0.80;99.90;;;;;;5054911;28;19921;-54
2023/02/10 06:18:57;;;;;;;;;;;-0.70;99.90;;;;;;5056534;28;19927;-56
2023/02/10 06:21:23;;;;;;;;;;;-0.70;99.90;;;;;;5055941;28;19929;-54
2023/02/10 06:23:50;;;;;;;;;;;-0.80;99.90;;;;;;5054610;28;19928;-55
2023/02/10 06:26:17;;;;;;;;;;;-0.80;99.90;;;;;;5055691;28;19920;-54
2023/02/10 06:28:45;;;;;;;;;;;-0.80;99.90;;;;;;5056076;28;19927;-56
2023/02/10 06:31:12;;;;;;;;;;;-0.80;99.90;;;;;;5056061;28;20255;-54
2023/02/10 06:33:39;;;;;;;;;;;-0.80;99.90;;;;;;5055553;28;19925;-55
2023/02/10 06:36:07;;;;;;;;;;;-0.80;99.90;;;;;;5056849;28;19925;-51
2023/02/10 06:38:34;;;;;;;;;;;-0.90;99.90;;;;;;5055585;28;19920;-52
2023/02/10 06:41:01;;;;;;;;;;;-0.90;99.90;;;;;;5056255;28;19927;-56
2023/02/10 06:43:28;;;;;;;;;;;-0.90;99.90;;;;;;5055937;28;20266;-55
2023/02/10 06:45:56;;;;;;;;;;;-0.80;99.90;;;;;;5055758;28;20268;-56
2023/02/10 06:48:23;;;;;;;;;;;-0.90;99.90;;;;;;5057237;28;19921;-56
2023/02/10 06:50:50;;;;;;;;;;;-1.00;99.90;;;;;;5056496;28;19921;-50
2023/02/10 06:53:17;;;;;;;;;;;-0.90;99.90;;;;;;5055511;28;20275;-53
2023/02/10 06:55:44;;;;;;;;;;;-0.90;99.90;;;;;;5056890;28;20297;-56
2023/02/10 06:58:11;;;;;;;;;;;-0.80;99.90;;;;;;5056236;28;19931;-54
2023/02/10 07:00:38;;;;;;;;;;;-0.70;99.90;;;;;;5056362;28;20324;-54
2023/02/10 07:03:06;;;;;;;;;;;-0.70;99.90;;;;;;5056581;28;19925;-54
2023/02/10 07:05:35;;;;;;;;;;;-0.70;99.90;;;;;;5053959;28;19975;-56
2023/02/10 07:08:03;;;;;;;;;;;-0.70;99.90;;;;;;5055176;28;19920;-56
2023/02/10 07:10:30;;;;;;;;;;;-0.80;99.90;;;;;;5056943;28;20015;-54
2023/02/10 07:12:57;;;;;;;;;;;-0.80;99.90;;;;;;5062886;28;20294;-55
2023/02/10 07:15:24;;;;;;;;;;;-0.80;99.90;;;;;;5074018;28;19920;-55
2023/02/10 07:17:51;;;;;;;;;;;-0.90;99.90;;;;;;5063919;28;19921;-54
2023/02/10 07:20:19;;;;;;;;;;;-0.90;99.90;;;;;;5057505;28;19952;-55
2023/02/10 07:22:46;;;;;;;;;;;-0.80;99.90;;;;;;5055241;28;19921;-55
2023/02/10 07:25:13;;;;;;;;;;;-0.80;99.90;;;;;;5053223;28;19924;-57
2023/02/10 07:27:40;;;;;;;;;;;-0.70;99.90;;;;;;5054659;28;19920;-57
2023/02/10 07:30:08;;;;;;;;;;;-0.70;99.90;;;;;;5054143;28;19925;-57
2023/02/10 07:32:34;;;;;;;;;;;-0.60;99.90;;;;;;5055249;28;20015;-56
2023/02/10 07:35:01;;;;;;;;;;;-0.60;99.90;;;;;;5055246;28;19928;-53
2023/02/10 07:37:31;;;;;;;;;;;-0.70;99.90;;;;;;5054921;28;19924;-57
2023/02/10 07:39:58;;;;;;;;;;;-0.70;99.90;;;;;;5054564;28;20374;-56
2023/02/10 07:42:25;;;;;;;;;;;-0.60;99.90;;;;;;5053416;28;19927;-56
2023/02/10 07:44:52;;;;;;;;;;;-0.50;99.90;;;;;;5054500;28;19927;-55
2023/02/10 07:47:19;;;;;;;;;;;-0.50;99.90;;;;;;5054329;28;19921;-54
2023/02/10 07:49:45;;;;;;;;;;;-0.50;99.90;;;;;;5053612;28;20551;-56
2023/02/10 07:52:12;;;;;;;;;;;-0.50;99.90;;;;;;5054685;28;19921;-54
2023/02/10 07:54:40;;;;;;;;;;;-0.50;99.90;;;;;;5053621;28;20081;-54
2023/02/10 07:57:07;;;;;;;;;;;-0.40;99.90;;;;;;5053319;28;20282;-53
2023/02/10 07:59:34;;;;;;;;;;;-0.30;99.90;;;;;;5055145;28;19921;-54
2023/02/10 08:02:01;;;;;;;;;;;-0.30;99.90;;;;;;5052745;28;19928;-54
2023/02/10 08:04:28;;;;;;;;;;;-0.40;99.90;;;;;;5053595;28;19960;-52
2023/02/10 08:06:56;;;;;;;;;;;-0.40;99.90;;;;;;5052671;28;19925;-55
2023/02/10 08:09:23;;;;;;;;;;;-0.50;99.90;;;;;;5052650;28;19921;-54
2023/02/10 08:11:51;;;;;;;;;;;-0.50;99.90;;;;;;5052768;28;19928;-55
2023/02/10 08:14:18;;;;;;;;;;;-0.50;99.90;;;;;;5067611;28;20363;-55
2023/02/10 08:16:44;;;;;;;;;;;-0.40;99.90;;;;;;5069253;28;19981;-55
2023/02/10 08:19:11;;;;;;;;;;;-0.30;99.90;;;;;;5071633;28;19920;-53
2023/02/10 08:21:38;;;;;;;;;;;-0.10;99.90;;;;;;5071686;28;19928;-52
2023/02/10 08:24:05;;;;;;;;;;;0.00;99.90;;;;;;5073848;28;19920;-57
2023/02/10 08:26:33;;;;;;;;;;;0.10;99.90;;;;;;5074510;28;19920;-57
2023/02/10 08:29:01;;;;;;;;;;;0.20;99.90;;;;;;5066616;28;19927;-70
2023/02/10 08:31:28;;;;;;;;;;;0.40;99.90;;;;;;5073561;28;19924;-70
2023/02/10 08:33:55;;;;;;;;;;;0.50;99.90;;;;;;5074897;28;19920;-70
2023/02/10 08:36:22;;;;;;;;;;;0.60;99.90;;;;;;5074233;28;19921;-71
2023/02/10 08:38:50;;;;;;;;;;;0.60;99.90;;;;;;5075130;28;19922;-70
2023/02/10 08:41:18;;;;;;;;;;;0.70;99.90;;;;;;5072720;28;19950;-70
2023/02/10 08:43:45;;;;;;;;;;;0.70;99.90;;;;;;5072777;28;19920;-70
2023/02/10 08:46:13;;;;;;;;;;;0.60;99.90;;;;;;5072125;28;19920;-70
2023/02/10 08:48:40;;;;;;;;;;;0.60;99.90;;;;;;5070376;28;19921;-71
2023/02/10 08:51:08;;;;;;;;;;;0.50;99.90;;;;;;5070317;28;19920;-71
2023/02/10 08:53:35;;;;;;;;;;;0.50;99.90;;;;;;5072269;28;20076;-69
2023/02/10 08:56:02;;;;;;;;;;;0.40;99.90;;;;;;5072284;28;20259;-69
2023/02/10 08:58:29;;;;;;;;;;;0.40;99.90;;;;;;5064384;28;19920;-69
2023/02/10 09:00:56;;;;;;;;;;;0.40;99.90;;;;;;5072539;28;19927;-68
2023/02/10 09:03:24;;;;;;;;;;;0.40;99.90;;;;;;5072654;28;19921;-69
2023/02/10 09:05:51;;;;;;;;;;;0.50;99.90;;;;;;5073847;28;20278;-69
2023/02/10 09:08:18;;;;;;;;;;;0.60;99.90;;;;;;5071497;28;19937;-70
2023/02/10 09:10:45;;;;;;;;;;;0.70;99.90;;;;;;5072133;28;19920;-69
2023/02/10 09:13:12;;;;;;;;;;;0.80;99.90;;;;;;5073268;28;19943;-69
2023/02/10 09:15:40;;;;;;;;;;;0.80;99.90;;;;;;5070731;28;20134;-70
2023/02/10 09:18:07;;;;;;;;;;;0.90;99.90;;;;;;5071762;28;19943;-70
2023/02/10 09:20:35;;;;;;;;;;;0.90;99.90;;;;;;5073017;28;19927;-69
2023/02/10 09:23:04;;;;;;;;;;;1.00;99.90;;;;;;5074337;28;19970;-70
2023/02/10 09:25:30;;;;;;;;;;;1.00;99.90;;;;;;5074243;28;19924;-69
2023/02/10 09:27:58;;;;;;;;;;;1.10;99.90;;;;;;5066807;28;19928;-70
2023/02/10 09:30:25;;;;;;;;;;;1.20;99.90;;;;;;5072125;28;20344;-72
2023/02/10 09:32:52;;;;;;;;;;;1.30;99.90;;;;;;5064561;28;20041;-72
2023/02/10 09:35:19;;;;;;;;;;;1.40;99.90;;;;;;5056696;28;20325;-72
2023/02/10 09:37:45;;;;;;;;;;;1.50;99.90;;;;;;5055935;28;19921;-72
2023/02/10 09:40:15;;;;;;;;;;;1.60;99.90;;;;;;5055263;28;20313;-70
2023/02/10 09:42:46;;;;;;;;;;;1.70;99.90;;;;;;5056042;28;20316;-68
2023/02/10 09:45:17;;;;;;;;;;;1.80;99.90;;;;;;5056690;28;20378;-67
2023/02/10 09:47:47;;;;;;;;;;;1.80;99.90;;;;;;5071153;28;20254;-68
2023/02/10 09:50:23;;;;;;;;;;;1.90;99.90;;;;;;5057427;28;20009;-68
2023/02/10 09:52:59;;;;;;;;;;;2.00;99.90;;;;;;5073615;28;20231;-67
2023/02/10 09:55:28;;;;;;;;;;;2.10;99.90;;;;;;5074682;28;19920;-68
2023/02/10 09:57:57;;;;;;;;;;;2.10;99.90;;;;;;5078019;28;19920;-67
2023/02/10 10:00:27;;;;;;;;;;;2.10;99.90;;;;;;5076655;28;19921;-69
2023/02/10 10:02:55;;;;;;;;;;;2.20;99.90;;;;;;5074560;28;19924;-68
2023/02/10 10:05:24;;;;;;;;;;;2.30;99.90;;;;;;5071999;28;19924;-68
2023/02/10 10:07:54;;;;;;;;;;;2.40;99.90;;;;;;5075720;28;20247;-58
2023/02/10 10:10:23;;;;;;;;;;;2.50;99.90;;;;;;5063596;28;20350;-57
2023/02/10 10:12:50;;;;;;;;;;;2.50;99.90;;;;;;5070073;28;20213;-57
2023/02/10 10:15:19;;;;;;;;;;;2.60;99.90;;;;;;5065073;28;19921;-57
2023/02/10 10:17:54;;;;;;;;;;;2.70;99.90;;;;;;5073103;28;20231;-58
2023/02/10 10:20:32;;;;;;;;;;;2.80;99.90;;;;;;5069387;28;20280;-57
2023/02/10 10:23:05;;;;;;;;;;;2.90;99.90;;;;;;5076671;28;19920;-58
2023/02/10 10:25:47;;;;;;;;;;;3.10;99.90;;;;;;5068742;28;19928;-62
2023/02/10 10:28:19;;;;;;;;;;;3.20;99.90;;;;;;5044893;28;19920;-62
2023/02/10 10:30:48;;;;;;;;;;;3.30;99.90;;;;;;5051749;28;19971;-63
2023/02/10 10:33:23;;;;;;;;;;;3.40;99.90;;;;;;5052505;28;19927;-63
2023/02/10 10:35:50;;;;;;;;;;;3.50;99.90;;;;;;5053301;28;19921;-63
2023/02/10 10:38:20;;;;;;;;;;;3.50;99.90;;;;;;5053740;28;20248;-63
2023/02/10 10:40:48;;;;;;;;;;;3.60;99.90;;;;;;5053061;28;19933;-63
2023/02/10 10:43:17;;;;;;;;;;;3.70;99.90;;;;;;5051993;28;19921;-64
2023/02/10 10:45:47;;;;;;;;;;;3.90;99.90;;;;;;5054674;28;20372;-63
2023/02/10 10:48:16;;;;;;;;;;;3.80;99.90;;;;;;5055635;28;20351;-62
2023/02/10 10:50:43;;;;;;;;;;;3.90;99.90;;;;;;5054238;28;19921;-63
2023/02/10 10:53:14;;;;;;;;;;;4.00;99.90;;;;;;5055408;28;19920;-62
2023/02/10 10:55:43;;;;;;;;;;;4.10;99.90;;;;;;5065897;28;20336;-64
2023/02/10 10:58:14;;;;;;;;;;;4.20;99.90;;;;;;5073631;28;20033;-63
2023/02/10 11:00:50;;;;;;;;;;;4.30;99.90;;;;;;5072761;28;19920;-62
2023/02/10 11:03:18;;;;;;;;;;;4.30;99.90;;;;;;5074089;28;19924;-62
2023/02/10 11:05:46;;;;;;;;;;;4.40;99.90;;;;;;5075301;28;20014;-63
2023/02/10 11:08:23;;;;;;;;;;;4.50;99.90;;;;;;5074583;28;20015;-62
2023/02/10 11:10:52;;;;;;;;;;;4.60;99.90;;;;;;5074521;28;19981;-56
2023/02/10 11:13:20;;;;;;;;;;;4.70;99.90;;;;;;5063448;28;19920;-55
2023/02/10 11:15:47;;;;;;;;;;;4.70;99.90;;;;;;5071454;28;19931;-57
2023/02/10 11:18:18;;;;;;;;;;;4.90;99.90;;;;;;5062903;28;19986;-56
2023/02/10 11:20:54;;;;;;;;;;;5.00;99.90;;;;;;5055563;28;19921;-56
2023/02/10 11:23:21;;;;;;;;;;;5.20;99.90;;;;;;5055531;28;20004;-57
2023/02/10 11:25:56;;;;;;;;;;;5.30;99.90;;;;;;5065515;28;19927;-57
2023/02/10 11:28:25;;;;;;;;;;;5.30;99.90;;;;;;5071066;28;20236;-57
2023/02/10 11:30:56;;;;;;;;;;;5.40;99.90;;;;;;5071221;28;19924;-56
2023/02/10 11:33:24;;;;;;;;;;;5.40;99.90;;;;;;5071811;28;19931;-57
2023/02/10 11:35:56;;;;;;;;;;;5.50;99.90;;;;;;5057589;28;19952;-57
2023/02/10 11:38:25;;;;;;;;;;;5.60;99.90;;;;;;5064338;28;19920;-57
2023/02/10 11:40:52;;;;;;;;;;;5.70;99.90;;;;;;5068614;28;19920;-57
2023/02/10 11:43:20;;;;;;;;;;;5.80;99.90;;;;;;5072843;28;19920;-56
2023/02/10 11:45:53;;;;;;;;;;;5.80;99.90;;;;;;5072117;28;19927;-55
2023/02/10 11:48:21;;;;;;;;;;;5.90;99.90;;;;;;5072053;28;20235;-57
2023/02/10 11:50:50;;;;;;;;;;;6.00;99.90;;;;;;5072774;28;19924;-55
2023/02/10 11:53:25;;;;;;;;;;;6.00;99.90;;;;;;5072255;28;20401;-56
2023/02/10 11:55:55;;;;;;;;;;;6.00;99.90;;;;;;5070791;28;20331;-54
2023/02/10 12:01:17;;;;;;;;;;;6.10;99.90;;;;;;5072337;28;19927;-55
2023/02/10 12:03:58;;;;;;;;;;;6.10;99.90;;;;;;5073555;28;19931;-53
2023/02/10 12:06:28;;;;;;;;;;;6.20;99.90;;;;;;5062527;28;20448;-56
2023/02/10 12:08:59;;;;;;;;;;;6.20;99.90;;;;;;5065706;28;19926;-55
2023/02/10 12:11:30;;;;;;;;;;;6.10;99.90;;;;;;5059643;28;19921;-55
2023/02/10 12:14:01;;;;;;;;;;;6.00;99.90;;;;;;5064631;28;19974;-56
2023/02/10 12:16:33;;;;;;;;;;;6.10;99.90;;;;;;5070565;28;20014;-55
2023/02/10 12:19:02;;;;;;;;;;;6.20;99.90;;;;;;5073547;28;19927;-54
2023/02/10 12:21:40;;;;;;;;;;;6.30;99.90;;;;;;5062877;28;19920;-55
2023/02/10 12:24:16;;;;;;;;;;;6.30;99.90;;;;;;5073733;28;19921;-56
2023/02/10 12:26:48;;;;;;;;;;;6.20;99.90;;;;;;5063307;28;20028;-56
2023/02/10 12:29:22;;;;;;;;;;;6.30;99.90;;;;;;5055167;28;19947;-57
2023/02/10 12:31:54;;;;;;;;;;;6.40;99.90;;;;;;5070761;28;19920;-57
2023/02/10 12:34:35;;;;;;;;;;;6.50;99.90;;;;;;5068722;28;19920;-56
2023/02/10 12:37:05;;;;;;;;;;;6.50;99.90;;;;;;5068139;28;19920;-57
2023/02/10 12:39:37;;;;;;;;;;;6.40;99.90;;;;;;5069063;28;19920;-57
2023/02/10 12:42:11;;;;;;;;;;;6.40;99.90;;;;;;5068213;28;20209;-55
2023/02/10 12:44:45;;;;;;;;;;;6.50;99.90;;;;;;5072269;28;19924;-56
2023/02/10 12:47:19;;;;;;;;;;;6.50;99.90;;;;;;5071624;28;19920;-57
2023/02/10 12:49:52;;;;;;;;;;;6.60;99.90;;;;;;5071332;28;19927;-56
2023/02/10 12:52:24;;;;;;;;;;;6.20;99.90;;;;;;5072124;28;19920;-57
2023/02/10 12:54:55;;;;;;;;;;;6.20;99.90;;;;;;5072374;28;20084;-57
2023/02/10 12:57:24;;;;;;;;;;;6.20;99.90;;;;;;5070501;28;20241;-56
2023/02/10 12:59:54;;;;;;;;;;;6.10;99.90;;;;;;5068817;28;19920;-55
2023/02/10 13:02:23;;;;;;;;;;;6.20;99.90;;;;;;5070156;28;20014;-57
2023/02/10 13:04:51;;;;;;;;;;;6.10;99.90;;;;;;5071591;28;19925;-58
2023/02/10 13:07:26;;;;;;;;;;;6.20;99.90;;;;;;5071266;28;19930;-57
2023/02/10 13:09:57;;;;;;;;;;;6.20;99.90;;;;;;5074787;28;19920;-58
2023/02/10 13:12:25;;;;;;;;;;;6.10;99.90;;;;;;5075974;28;20316;-57
2023/02/10 13:14:54;;;;;;;;;;;6.10;99.90;;;;;;5072570;28;19978;-57
2023/02/10 13:17:21;;;;;;;;;;;6.20;99.90;;;;;;5075144;28;19921;-56
2023/02/10 13:19:53;;;;;;;;;;;6.10;99.90;;;;;;5072953;28;19933;-57
2023/02/10 13:22:23;;;;;;;;;;;6.10;99.90;;;;;;5074642;28;19920;-56
2023/02/10 13:24:55;;;;;;;;;;;6.20;99.90;;;;;;5060894;28;19921;-57
2023/02/10 13:27:27;;;;;;;;;;;6.20;99.90;;;;;;5052487;28;20279;-57
2023/02/10 13:29:59;;;;;;;;;;;6.20;99.90;;;;;;5056658;28;19920;-57
2023/02/10 13:32:30;;;;;;;;;;;6.20;99.90;;;;;;5057957;28;19921;-55
2023/02/10 13:34:59;;;;;;;;;;;6.30;99.90;;;;;;5067564;28;19928;-55
2023/02/10 13:37:29;;;;;;;;;;;6.30;99.90;;;;;;5074264;28;19920;-57
2023/02/10 13:39:59;;;;;;;;;;;6.30;99.90;;;;;;5077895;28;19920;-56
2023/02/10 13:42:29;;;;;;;;;;;6.30;99.90;;;;;;5076338;28;19924;-57
2023/02/10 13:44:58;;;;;;;;;;;6.20;99.90;;;;;;5078087;28;19960;-53
2023/02/10 13:47:27;;;;;;;;;;;6.20;99.90;;;;;;5075082;28;19920;-56
2023/02/10 13:49:55;;;;;;;;;;;6.10;99.90;;;;;;5074819;28;19924;-57
2023/02/10 13:52:24;;;;;;;;;;;6.00;99.90;;;;;;5074708;28;20236;-55
2023/02/10 13:54:55;;;;;;;;;;;6.00;99.90;;;;;;5068208;28;20010;-55
2023/02/10 13:57:26;;;;;;;;;;;6.00;99.90;;;;;;5073744;28;19920;-56
2023/02/10 14:00:05;;;;;;;;;;;6.10;99.90;;;;;;5073868;28;20299;-56
2023/02/10 14:02:32;;;;;;;;;;;6.10;99.90;;;;;;5076114;28;19926;-55
2023/02/10 14:05:00;;;;;;;;;;;6.10;99.90;;;;;;5073584;28;19931;-56
2023/02/10 14:07:34;;;;;;;;;;;6.10;99.90;;;;;;5075086;28;19932;-57
2023/02/10 14:10:02;;;;;;;;;;;6.20;99.90;;;;;;5074311;28;19920;-56
2023/02/10 14:12:29;;;;;;;;;;;6.20;99.90;;;;;;5075570;28;19924;-56
2023/02/10 14:15:11;;;;;;;;;;;6.10;99.90;;;;;;5074386;28;19927;-56
2023/02/10 14:17:39;;;;;;;;;;;6.10;99.90;;;;;;5074457;28;19940;-56
2023/02/10 14:20:15;;;;;;;;;;;6.10;99.90;;;;;;5073210;28;19927;-56
2023/02/10 14:22:42;;;;;;;;;;;6.10;99.90;;;;;;5072626;28;19920;-55
2023/02/10 14:25:16;;;;;;;;;;;6.10;99.90;;;;;;5073269;28;19948;-57
2023/02/10 14:27:48;;;;;;;;;;;6.00;99.90;;;;;;5073479;28;19928;-55
2023/02/10 14:30:21;;;;;;;;;;;6.00;99.90;;;;;;5074640;28;20372;-54
2023/02/10 14:32:48;;;;;;;;;;;6.00;99.90;;;;;;5072493;28;19957;-58
2023/02/10 14:35:21;;;;;;;;;;;6.00;99.90;;;;;;5072922;28;20018;-58